Time;durP1;ratioP1;P1;durP2;ratioP2;P2;SDS_P1;SDS_P2;PMS_P1;PMS_P2;Temp;Humidity;BMP_temperature;BMP_pressure;BME280_temperature;BME280_humidity;BME280_pressure;Samples;Min_cycle;Max_cycle;Signal;HPM_P1;HPM_P2
2022/09/27 00:02:11;;;;;;;5.10;2.03;;;11.20;99.90;;;;;;5027362;23;20239;-78
2022/09/27 00:04:39;;;;;;;4.43;2.10;;;11.20;99.90;;;;;;4995282;28;20558;-75
2022/09/27 00:07:07;;;;;;;5.17;1.93;;;11.20;99.90;;;;;;4990629;28;20203;-76
2022/09/27 00:09:34;;;;;;;4.20;2.50;;;11.20;99.90;;;;;;4986526;28;20195;-76
2022/09/27 00:12:04;;;;;;;3.30;2.20;;;11.20;99.90;;;;;;4994811;28;20219;-76
2022/09/27 00:14:32;;;;;;;3.93;2.60;;;11.20;99.90;;;;;;4989538;28;20224;-76
2022/09/27 00:16:59;;;;;;;6.47;2.47;;;11.10;99.90;;;;;;4989557;28;20555;-76
2022/09/27 00:19:27;;;;;;;3.90;2.40;;;11.20;99.90;;;;;;4984272;28;20199;-76
2022/09/27 00:21:54;;;;;;;4.77;2.87;;;11.20;99.90;;;;;;4986854;28;20567;-76
2022/09/27 00:24:22;;;;;;;5.77;2.00;;;11.30;99.90;;;;;;4997735;28;20210;-76
2022/09/27 00:26:50;;;;;;;4.67;2.43;;;11.20;99.90;;;;;;4988180;28;20215;-78
2022/09/27 00:29:19;;;;;;;4.83;2.57;;;11.20;99.90;;;;;;4989700;28;20214;-80
2022/09/27 00:31:47;;;;;;;4.20;2.13;;;11.10;99.90;;;;;;4988029;28;20227;-76
2022/09/27 00:34:19;;;;;;;5.97;2.00;;;11.10;99.90;;;;;;4989672;28;20710;-76
2022/09/27 00:36:47;;;;;;;4.67;1.93;;;11.20;99.90;;;;;;5006144;28;20578;-78
2022/09/27 00:39:15;;;;;;;3.10;1.87;;;11.20;99.90;;;;;;4985250;28;20200;-77
2022/09/27 00:41:43;;;;;;;5.10;1.50;;;11.10;99.90;;;;;;5001800;28;20227;-80
2022/09/27 00:44:48;;;;;;;4.57;1.93;;;11.10;99.90;;;;;;4988227;28;20200;-78
2022/09/27 00:47:23;;;;;;;4.87;1.90;;;11.10;99.90;;;;;;4984075;28;20196;-79
2022/09/27 00:49:54;;;;;;;4.93;1.97;;;11.10;99.90;;;;;;4990323;28;20214;-78
2022/09/27 00:52:25;;;;;;;3.43;1.73;;;11.10;99.90;;;;;;4990692;28;20234;-78
2022/09/27 00:54:57;;;;;;;5.53;1.80;;;11.10;99.90;;;;;;4992753;28;20229;-80
2022/09/27 00:57:24;;;;;;;6.70;2.33;;;11.00;99.90;;;;;;5002792;28;20200;-78
2022/09/27 00:59:58;;;;;;;5.87;2.70;;;11.00;99.90;;;;;;4994593;28;20214;-78
2022/09/27 01:02:27;;;;;;;4.87;3.70;;;11.10;99.90;;;;;;5009819;28;20223;-78
2022/09/27 01:04:55;;;;;;;5.67;3.20;;;11.00;99.90;;;;;;4989158;28;20211;-79
2022/09/27 01:07:23;;;;;;;6.93;4.07;;;11.00;99.90;;;;;;4991424;28;20204;-78
2022/09/27 01:09:51;;;;;;;8.37;4.37;;;11.10;99.90;;;;;;4982375;28;20209;-78
2022/09/27 01:12:27;;;;;;;7.87;4.90;;;11.00;99.90;;;;;;4991407;28;20216;-78
2022/09/27 01:15:12;;;;;;;9.90;6.27;;;11.10;99.90;;;;;;4991873;28;20564;-79
2022/09/27 01:17:52;;;;;;;12.50;5.93;;;11.10;99.90;;;;;;5009506;28;20203;-80
2022/09/27 01:20:34;;;;;;;12.17;7.57;;;11.10;99.90;;;;;;5004282;28;20187;-80
2022/09/27 01:23:20;;;;;;;9.23;6.20;;;11.00;99.90;;;;;;5007545;28;20222;-80
2022/09/27 01:26:00;;;;;;;10.77;6.07;;;11.10;99.90;;;;;;4995089;28;20195;-79
2022/09/27 01:28:42;;;;;;;10.70;5.33;;;11.00;99.90;;;;;;4983397;28;20199;-82
2022/09/27 01:31:19;;;;;;;6.57;4.80;;;11.00;99.90;;;;;;5000618;28;20203;-78
2022/09/27 01:33:53;;;;;;;10.43;5.83;;;11.00;99.90;;;;;;5015622;28;20208;-79
2022/09/27 01:36:29;;;;;;;8.33;4.90;;;11.00;99.90;;;;;;4989808;28;20226;-78
2022/09/27 01:39:17;;;;;;;6.57;4.90;;;11.00;99.90;;;;;;4992831;28;20202;-79
2022/09/27 01:42:12;;;;;;;7.60;4.97;;;11.10;99.90;;;;;;5006585;28;20212;-78
2022/09/27 01:44:50;;;;;;;7.97;4.30;;;11.00;99.90;;;;;;5012439;28;20647;-78
2022/09/27 01:47:28;;;;;;;7.47;5.13;;;11.10;99.90;;;;;;4990643;28;20214;-78
2022/09/27 01:50:04;;;;;;;8.97;5.00;;;11.00;99.90;;;;;;5006022;28;20682;-80
2022/09/27 01:52:39;;;;;;;9.03;4.80;;;11.10;99.90;;;;;;5006540;28;20220;-78
2022/09/27 01:55:10;;;;;;;10.20;5.20;;;11.10;99.90;;;;;;4983306;28;20212;-79
2022/09/27 01:57:59;;;;;;;7.00;5.67;;;11.10;99.90;;;;;;5009132;28;20211;-82
2022/09/27 02:00:28;;;;;;;8.90;6.83;;;11.00;99.90;;;;;;4984924;28;20597;-79
2022/09/27 02:03:02;;;;;;;10.43;6.03;;;11.00;99.90;;;;;;4993778;28;20231;-79
2022/09/27 02:05:41;;;;;;;9.00;6.00;;;11.10;99.90;;;;;;5006234;28;20204;-79
2022/09/27 02:08:35;;;;;;;11.23;7.10;;;11.10;99.90;;;;;;4999914;28;20199;-79
2022/09/27 02:11:11;;;;;;;9.37;6.80;;;11.00;99.90;;;;;;4984147;28;20210;-79
2022/09/27 02:13:50;;;;;;;9.03;6.80;;;11.10;99.90;;;;;;4991153;28;20678;-79
2022/09/27 02:16:49;;;;;;;8.93;7.33;;;11.00;99.90;;;;;;5005099;28;20223;-79
2022/09/27 02:19:29;;;;;;;9.93;7.80;;;11.00;99.90;;;;;;4995392;28;20218;-82
2022/09/27 02:22:04;;;;;;;11.57;8.03;;;10.90;99.90;;;;;;5003121;28;20231;-79
2022/09/27 02:24:39;;;;;;;11.73;8.27;;;11.00;99.90;;;;;;5008164;28;20206;-79
2022/09/27 02:27:15;;;;;;;11.87;8.47;;;10.90;99.90;;;;;;4988394;28;20195;-80
2022/09/27 02:29:49;;;;;;;10.60;7.43;;;10.90;99.90;;;;;;5005313;28;20200;-78
2022/09/27 02:32:17;;;;;;;12.47;7.53;;;10.90;99.90;;;;;;4988536;28;20230;-78
2022/09/27 02:34:48;;;;;;;10.70;6.80;;;11.00;99.90;;;;;;5014470;28;20207;-79
2022/09/27 02:37:16;;;;;;;10.93;7.10;;;10.90;99.90;;;;;;4997895;28;20532;-79
2022/09/27 02:39:43;;;;;;;8.93;6.90;;;10.90;99.90;;;;;;4990294;28;20200;-78
2022/09/27 02:42:12;;;;;;;8.00;6.13;;;10.90;99.90;;;;;;4982482;28;20220;-78
2022/09/27 02:44:41;;;;;;;7.30;5.87;;;10.80;99.90;;;;;;4989962;28;20222;-79
2022/09/27 02:47:35;;;;;;;6.53;5.37;;;10.90;99.90;;;;;;4993684;28;20199;-79
2022/09/27 02:50:32;;;;;;;8.27;6.20;;;10.90;99.90;;;;;;4984601;28;20199;-79
2022/09/27 02:53:38;;;;;;;8.37;5.43;;;10.90;99.90;;;;;;4990578;28;20252;-82
2022/09/27 02:56:32;;;;;;;8.00;5.57;;;10.80;99.90;;;;;;4983489;28;20215;-79
2022/09/27 02:59:45;;;;;;;5.63;5.00;;;10.80;99.90;;;;;;4930317;29;20201;-80
2022/09/27 03:02:49;;;;;;;5.97;5.10;;;10.90;99.90;;;;;;4931089;29;20221;-78
2022/09/27 03:05:43;;;;;;;10.97;6.33;;;10.90;99.90;;;;;;4998665;28;20192;-79
2022/09/27 03:08:12;;;;;;;12.00;6.20;;;10.80;99.90;;;;;;5006240;28;20203;-79
2022/09/27 03:10:40;;;;;;;8.30;6.70;;;10.90;99.90;;;;;;4992216;28;20211;-78
2022/09/27 03:13:08;;;;;;;8.60;6.30;;;10.80;99.90;;;;;;4997499;28;20219;-79
2022/09/27 03:15:36;;;;;;;9.17;6.20;;;10.80;99.90;;;;;;4988864;28;20219;-78
2022/09/27 03:18:04;;;;;;;7.20;6.20;;;10.80;99.90;;;;;;5004364;28;20684;-79
2022/09/27 03:20:48;;;;;;;9.57;7.13;;;10.70;99.90;;;;;;5007995;28;20206;-79
2022/09/27 03:23:20;;;;;;;12.90;7.27;;;10.70;99.90;;;;;;4983261;28;20219;-79
2022/09/27 03:25:48;;;;;;;11.03;6.97;;;10.80;99.90;;;;;;4991946;28;20195;-79
2022/09/27 03:28:16;;;;;;;11.87;7.20;;;10.80;99.90;;;;;;4991955;28;20212;-79
2022/09/27 03:30:46;;;;;;;14.43;6.93;;;10.80;99.90;;;;;;4999925;28;20196;-79
2022/09/27 03:33:18;;;;;;;9.40;6.23;;;10.80;99.90;;;;;;4992245;28;20230;-78
2022/09/27 03:35:51;;;;;;;8.80;6.03;;;10.80;99.90;;;;;;4994090;28;20207;-79
2022/09/27 03:38:19;;;;;;;8.43;6.10;;;10.90;99.90;;;;;;4982079;28;20791;-79
2022/09/27 03:40:47;;;;;;;6.33;5.00;;;10.90;99.90;;;;;;4984572;28;20692;-80
2022/09/27 03:43:15;;;;;;;9.90;5.47;;;10.90;99.90;;;;;;4989702;28;20231;-78
2022/09/27 03:45:46;;;;;;;5.57;4.50;;;10.80;99.90;;;;;;4986154;28;20207;-79
2022/09/27 03:48:14;;;;;;;6.03;4.63;;;10.70;99.90;;;;;;4990196;28;20203;-79
2022/09/27 03:50:42;;;;;;;7.80;4.27;;;10.70;99.90;;;;;;5012574;28;20192;-80
2022/09/27 03:53:11;;;;;;;8.57;4.27;;;10.70;99.90;;;;;;4985041;28;20216;-78
2022/09/27 03:55:38;;;;;;;6.40;3.97;;;10.80;99.90;;;;;;4993278;28;20230;-79
2022/09/27 03:58:06;;;;;;;4.80;3.70;;;10.70;99.90;;;;;;5005495;28;20545;-80
2022/09/27 04:00:36;;;;;;;5.50;3.97;;;10.80;99.90;;;;;;4993067;28;20200;-79
2022/09/27 04:03:04;;;;;;;5.07;3.63;;;10.80;99.90;;;;;;4989949;28;20250;-80
2022/09/27 04:06:04;;;;;;;5.80;3.93;;;10.70;99.90;;;;;;5005189;28;20192;-78
2022/09/27 04:08:39;;;;;;;9.47;4.20;;;10.60;99.90;;;;;;4990559;28;20569;-80
2022/09/27 04:11:07;;;;;;;8.67;3.60;;;10.70;99.90;;;;;;5002781;28;20202;-79
2022/09/27 04:13:35;;;;;;;4.83;3.73;;;10.60;99.90;;;;;;5003099;28;20212;-80
2022/09/27 04:16:03;;;;;;;6.63;3.93;;;10.70;99.90;;;;;;4984204;28;20687;-79
2022/09/27 04:18:53;;;;;;;6.40;4.70;;;10.70;99.90;;;;;;4988513;28;20204;-79
2022/09/27 04:21:50;;;;;;;7.43;5.27;;;10.70;99.90;;;;;;4994575;28;20212;-79
2022/09/27 04:24:20;;;;;;;8.37;6.20;;;10.60;99.90;;;;;;4985193;28;20211;-78
2022/09/27 04:27:02;;;;;;;14.20;8.73;;;10.60;99.90;;;;;;4991616;28;20583;-79
2022/09/27 04:29:30;;;;;;;13.30;10.63;;;10.60;99.90;;;;;;4997659;28;20537;-79
2022/09/27 04:32:03;;;;;;;15.67;10.77;;;10.60;99.90;;;;;;4986089;28;20688;-79
2022/09/27 04:37:42;;;;;;;10.67;8.83;;;10.60;99.90;;;;;;5003623;28;20211;-79
2022/09/27 04:40:11;;;;;;;12.27;8.87;;;10.60;99.90;;;;;;4999100;28;20199;-79
2022/09/27 04:42:39;;;;;;;13.10;8.37;;;10.60;99.90;;;;;;4996184;28;20236;-79
2022/09/27 04:45:07;;;;;;;10.13;7.73;;;10.60;99.90;;;;;;5014329;28;20199;-79
2022/09/27 04:47:35;;;;;;;9.07;6.77;;;10.60;99.90;;;;;;4992588;28;20206;-79
2022/09/27 04:50:03;;;;;;;10.60;6.63;;;10.60;99.90;;;;;;5007948;28;20211;-79
2022/09/27 04:52:31;;;;;;;9.10;7.07;;;10.60;99.90;;;;;;5009583;28;20223;-79
2022/09/27 04:54:58;;;;;;;11.00;6.97;;;10.70;99.90;;;;;;4991246;28;20196;-79
2022/09/27 04:57:27;;;;;;;11.33;8.80;;;10.60;99.90;;;;;;4998049;28;20223;-79
2022/09/27 05:00:42;;;;;;;13.50;9.53;;;10.50;99.90;;;;;;5006399;28;20196;-79
2022/09/27 05:03:29;;;;;;;15.33;10.07;;;10.60;99.90;;;;;;5009076;28;20231;-79
2022/09/27 05:06:01;;;;;;;12.93;10.00;;;10.60;99.90;;;;;;4994340;28;20686;-79
2022/09/27 05:08:29;;;;;;;12.17;9.30;;;10.60;99.90;;;;;;4986103;28;20203;-79
2022/09/27 05:11:14;;;;;;;16.30;9.70;;;10.40;99.90;;;;;;4993494;28;20651;-79
2022/09/27 05:13:46;;;;;;;12.87;8.73;;;10.30;99.90;;;;;;4989415;28;20219;-79
2022/09/27 05:16:14;;;;;;;13.13;8.97;;;10.20;99.90;;;;;;5000449;28;20215;-79
2022/09/27 05:19:01;;;;;;;16.07;8.47;;;10.10;99.90;;;;;;5006804;28;20691;-80
2022/09/27 05:21:58;;;;;;;14.00;9.40;;;10.20;99.90;;;;;;4953918;28;20225;-79
2022/09/27 05:24:30;;;;;;;10.93;8.70;;;10.10;99.90;;;;;;4991572;28;20231;-78
2022/09/27 05:26:58;;;;;;;12.90;9.77;;;10.00;99.90;;;;;;4985448;28;20204;-78
2022/09/27 05:29:27;;;;;;;12.20;9.37;;;10.10;99.90;;;;;;5005901;28;20196;-78
2022/09/27 05:32:15;;;;;;;14.90;9.20;;;10.00;99.90;;;;;;5004149;28;20234;-79
2022/09/27 05:34:44;;;;;;;13.00;9.30;;;10.00;99.90;;;;;;4987802;28;20203;-78
2022/09/27 05:37:12;;;;;;;12.90;8.53;;;10.00;99.90;;;;;;4998281;28;20231;-78
2022/09/27 05:39:41;;;;;;;11.37;8.97;;;9.90;99.90;;;;;;5003166;28;20200;-78
2022/09/27 05:42:09;;;;;;;8.70;7.00;;;10.10;99.90;;;;;;4992098;28;20224;-78
2022/09/27 05:44:39;;;;;;;8.40;6.37;;;10.00;99.90;;;;;;4991643;28;20215;-77
2022/09/27 05:47:07;;;;;;;8.50;6.43;;;10.00;99.90;;;;;;4994560;28;20557;-78
2022/09/27 05:49:36;;;;;;;12.07;6.87;;;9.90;99.90;;;;;;4989442;28;20219;-78
2022/09/27 05:52:04;;;;;;;11.27;6.73;;;9.90;99.90;;;;;;4991901;28;20234;-78
2022/09/27 05:54:32;;;;;;;7.90;5.70;;;10.00;99.90;;;;;;5002130;28;20203;-78
2022/09/27 05:57:00;;;;;;;10.83;5.63;;;9.90;99.90;;;;;;4989103;28;20626;-78
2022/09/27 05:59:44;;;;;;;7.73;4.80;;;9.90;99.90;;;;;;5009912;28;20204;-79
2022/09/27 06:02:20;;;;;;;7.00;4.47;;;10.40;99.90;;;;;;5013458;28;20230;-79
2022/09/27 06:05:07;;;;;;;9.60;5.17;;;10.20;99.90;;;;;;5013351;28;20254;-79
2022/09/27 06:08:12;;;;;;;7.40;4.67;;;10.10;99.90;;;;;;5012802;28;20211;-79
2022/09/27 06:10:46;;;;;;;6.73;4.90;;;9.90;99.90;;;;;;5010991;28;20212;-78
2022/09/27 06:13:15;;;;;;;6.27;4.77;;;9.90;99.90;;;;;;4999716;28;20687;-77
2022/09/27 06:15:46;;;;;;;6.30;4.93;;;9.80;99.90;;;;;;4982737;28;20208;-78
2022/09/27 06:18:16;;;;;;;6.67;4.60;;;9.80;99.90;;;;;;4984508;28;20208;-78
2022/09/27 06:20:46;;;;;;;10.40;5.47;;;9.80;99.90;;;;;;4984718;28;20200;-78
2022/09/27 06:23:17;;;;;;;8.30;5.17;;;9.70;99.90;;;;;;4980333;28;20715;-80
2022/09/27 06:25:46;;;;;;;8.57;4.60;;;9.70;99.90;;;;;;5003525;28;20255;-80
2022/09/27 06:28:29;;;;;;;5.33;4.30;;;9.80;99.90;;;;;;4996106;28;20204;-79
2022/09/27 06:30:59;;;;;;;8.10;4.43;;;9.80;99.90;;;;;;4988094;28;20200;-78
2022/09/27 06:33:47;;;;;;;6.27;4.27;;;9.80;99.90;;;;;;4997525;28;20192;-82
2022/09/27 06:36:15;;;;;;;6.90;3.77;;;9.80;99.90;;;;;;4990522;28;20207;-77
2022/09/27 06:38:45;;;;;;;3.90;3.30;;;9.80;99.90;;;;;;4997571;28;20222;-78
2022/09/27 06:41:17;;;;;;;8.33;3.23;;;9.80;99.90;;;;;;4987430;28;20210;-78
2022/09/27 06:44:10;;;;;;;5.93;3.13;;;9.70;99.90;;;;;;5005328;28;20191;-82
2022/09/27 06:46:42;;;;;;;6.67;2.90;;;9.90;99.90;;;;;;5010533;28;20209;-79
2022/09/27 06:49:12;;;;;;;3.43;2.57;;;9.80;99.90;;;;;;5011299;28;20195;-78
2022/09/27 06:51:41;;;;;;;4.20;2.20;;;9.90;99.90;;;;;;4988704;28;20220;-77
2022/09/27 06:54:09;;;;;;;4.73;2.07;;;9.90;99.90;;;;;;4983144;28;20564;-78
2022/09/27 06:56:37;;;;;;;3.33;2.00;;;9.80;99.90;;;;;;4991390;28;20202;-78
2022/09/27 07:01:52;;;;;;;4.20;2.37;;;9.80;99.90;;;;;;5004916;28;20230;-78
2022/09/27 07:04:38;;;;;;;4.70;2.10;;;9.80;99.90;;;;;;5009954;28;20196;-77
2022/09/27 07:07:08;;;;;;;5.60;2.00;;;9.80;99.90;;;;;;5009782;28;20191;-77
2022/09/27 07:09:39;;;;;;;3.10;1.80;;;9.80;99.90;;;;;;5005373;28;20195;-78
2022/09/27 07:12:07;;;;;;;5.03;1.80;;;9.80;99.90;;;;;;4979700;28;20224;-78
2022/09/27 07:14:35;;;;;;;12.20;2.10;;;9.90;99.90;;;;;;4973932;28;20211;-77
2022/09/27 07:17:05;;;;;;;4.57;2.40;;;9.80;99.90;;;;;;4981811;28;20204;-77
2022/09/27 07:19:44;;;;;;;6.67;2.33;;;9.80;99.90;;;;;;4984996;28;20195;-78
2022/09/27 07:22:13;;;;;;;5.93;2.27;;;9.80;99.90;;;;;;5003131;28;20211;-79
2022/09/27 07:24:43;;;;;;;5.80;2.47;;;9.90;99.90;;;;;;5002166;28;20203;-79
2022/09/27 07:27:12;;;;;;;5.90;3.20;;;9.80;99.90;;;;;;4980726;28;21224;-78
2022/09/27 07:29:41;;;;;;;5.27;2.47;;;9.90;99.90;;;;;;4988522;28;20199;-80
2022/09/27 07:32:10;;;;;;;10.17;2.67;;;10.00;99.90;;;;;;4985355;28;20226;-78
2022/09/27 07:34:39;;;;;;;5.27;2.40;;;9.90;99.90;;;;;;4983429;28;20204;-77
2022/09/27 07:37:08;;;;;;;3.97;2.40;;;9.90;99.90;;;;;;4984265;28;20203;-78
2022/09/27 07:39:40;;;;;;;3.60;2.40;;;9.80;99.90;;;;;;4989959;28;20203;-77
2022/09/27 07:42:08;;;;;;;2.67;1.90;;;9.90;99.90;;;;;;4987211;28;20215;-78
2022/09/27 07:44:41;;;;;;;6.60;2.20;;;10.00;99.90;;;;;;4986474;28;20203;-77
2022/09/27 07:47:21;;;;;;;3.37;2.13;;;10.00;99.90;;;;;;4985933;28;20206;-82
2022/09/27 07:50:12;;;;;;;4.73;1.90;;;10.00;99.90;;;;;;4984782;28;20203;-77
2022/09/27 07:52:47;;;;;;;5.97;2.17;;;10.00;99.90;;;;;;5002582;28;20223;-78
2022/09/27 07:55:29;;;;;;;3.90;1.77;;;10.00;99.90;;;;;;4994260;28;20200;-81
2022/09/27 07:58:20;;;;;;;4.07;2.00;;;10.10;99.90;;;;;;4978361;28;20222;-77
2022/09/27 08:00:48;;;;;;;5.87;2.50;;;10.00;99.90;;;;;;4982085;28;20198;-82
2022/09/27 08:03:17;;;;;;;2.63;1.80;;;10.10;99.90;;;;;;4992188;28;20227;-78
2022/09/27 08:05:48;;;;;;;4.60;1.97;;;10.10;99.90;;;;;;4988160;28;20204;-77
2022/09/27 08:08:17;;;;;;;4.00;1.97;;;10.00;99.90;;;;;;4996957;28;20203;-77
2022/09/27 08:10:46;;;;;;;3.50;1.77;;;10.00;99.90;;;;;;4982355;28;20674;-77
2022/09/27 08:13:16;;;;;;;2.67;1.83;;;10.00;99.90;;;;;;4984028;28;20230;-80
2022/09/27 08:15:44;;;;;;;3.53;1.87;;;10.00;99.90;;;;;;5000114;28;20208;-78
2022/09/27 08:18:12;;;;;;;4.57;2.10;;;10.00;99.90;;;;;;4991701;28;20235;-81
2022/09/27 08:20:58;;;;;;;4.00;2.13;;;10.00;99.90;;;;;;5014413;28;20195;-78
2022/09/27 08:23:29;;;;;;;3.70;1.80;;;10.10;99.90;;;;;;4989522;28;20258;-80
2022/09/27 08:26:14;;;;;;;4.40;1.63;;;10.10;99.90;;;;;;4986104;28;20196;-77
2022/09/27 08:28:57;;;;;;;3.27;1.50;;;10.20;99.90;;;;;;4987360;28;20202;-79
2022/09/27 08:31:27;;;;;;;3.83;1.60;;;10.20;99.90;;;;;;4990633;28;20214;-79
2022/09/27 08:33:57;;;;;;;3.00;1.40;;;10.20;99.90;;;;;;4987376;28;20983;-82
2022/09/27 08:36:26;;;;;;;4.93;1.67;;;10.30;99.90;;;;;;4994378;28;20204;-79
2022/09/27 08:38:56;;;;;;;2.40;1.60;;;10.30;99.90;;;;;;4995289;28;20231;-79
2022/09/27 08:41:35;;;;;;;4.27;2.13;;;10.30;99.90;;;;;;5016835;28;20196;-79
2022/09/27 08:44:11;;;;;;;2.53;1.70;;;10.30;99.90;;;;;;5001964;28;20210;-79
2022/09/27 08:46:59;;;;;;;3.80;1.90;;;10.50;99.90;;;;;;4992493;28;20203;-80
2022/09/27 08:49:32;;;;;;;4.90;2.03;;;10.90;99.90;;;;;;4993584;28;20670;-78
2022/09/27 08:52:06;;;;;;;3.10;1.67;;;10.80;99.90;;;;;;5001218;28;20219;-79
2022/09/27 08:54:37;;;;;;;2.80;1.70;;;10.80;99.90;;;;;;4990105;28;20208;-79
2022/09/27 08:57:11;;;;;;;1.70;1.60;;;10.80;99.90;;;;;;5008216;28;20211;-79
2022/09/27 08:59:42;;;;;;;3.13;1.97;;;10.90;99.90;;;;;;4990686;28;20584;-78
2022/09/27 09:02:18;;;;;;;2.80;2.00;;;11.00;99.90;;;;;;4990228;28;20232;-78
2022/09/27 09:04:50;;;;;;;2.37;2.10;;;10.90;99.90;;;;;;4983815;28;20203;-79
2022/09/27 09:07:35;;;;;;;2.87;2.10;;;11.00;99.90;;;;;;4999225;28;20208;-79
2022/09/27 09:12:45;;;;;;;4.27;2.27;;;11.10;99.90;;;;;;4990664;28;20192;-78
2022/09/27 09:13:11;;;;;;;4.97;2.60;;;11.00;99.90;;;;;;4988969;28;20223;-79
2022/09/27 09:15:57;;;;;;;2.77;2.50;;;11.00;99.90;;;;;;4990068;28;20192;-77
2022/09/27 09:19:07;;;;;;;3.20;2.57;;;10.90;99.90;;;;;;4982154;28;20226;-77
2022/09/27 09:22:03;;;;;;;2.93;1.87;;;10.90;99.90;;;;;;5002104;28;20223;-77
2022/09/27 09:24:43;;;;;;;3.23;2.03;;;10.70;99.90;;;;;;4991328;28;20203;-80
2022/09/27 09:27:37;;;;;;;3.47;1.83;;;10.80;99.90;;;;;;5002958;28;20191;-78
2022/09/27 09:30:21;;;;;;;2.10;1.87;;;10.90;99.90;;;;;;4989882;28;20192;-77
2022/09/27 09:33:12;;;;;;;2.00;1.70;;;10.80;99.90;;;;;;4995986;28;20227;-78
2022/09/27 09:35:44;;;;;;;2.73;1.73;;;10.60;99.90;;;;;;4988789;28;20210;-77
2022/09/27 09:38:18;;;;;;;3.80;1.90;;;10.60;99.90;;;;;;5004833;28;20210;-78
2022/09/27 09:40:52;;;;;;;2.77;2.23;;;10.70;99.90;;;;;;4986287;28;20560;-79
2022/09/27 09:43:26;;;;;;;2.77;2.47;;;10.50;99.90;;;;;;4998930;28;20215;-78
2022/09/27 09:46:02;;;;;;;4.10;2.60;;;10.40;99.90;;;;;;4981286;28;20210;-78
2022/09/27 09:48:38;;;;;;;3.10;2.47;;;10.50;99.90;;;;;;4989154;28;20200;-78
2022/09/27 09:51:09;;;;;;;4.33;2.77;;;10.50;99.90;;;;;;5002463;28;20199;-77
2022/09/27 09:53:42;;;;;;;3.53;2.83;;;10.50;99.90;;;;;;4985986;28;20200;-78
2022/09/27 09:56:17;;;;;;;4.30;2.87;;;10.50;99.90;;;;;;4991636;28;20195;-78
2022/09/27 09:58:49;;;;;;;3.13;2.77;;;10.60;99.90;;;;;;4988894;28;20220;-76
2022/09/27 10:01:23;;;;;;;3.27;2.93;;;10.70;99.90;;;;;;4991439;28;20199;-77
2022/09/27 10:03:50;;;;;;;3.03;2.83;;;10.60;99.90;;;;;;4982356;28;20577;-79
2022/09/27 10:06:19;;;;;;;6.33;3.00;;;10.60;99.90;;;;;;4992736;28;20208;-79
2022/09/27 10:08:48;;;;;;;4.10;2.57;;;10.60;99.90;;;;;;5013764;28;20207;-78
2022/09/27 10:11:44;;;;;;;5.00;2.70;;;10.60;99.90;;;;;;4988087;28;20627;-78
2022/09/27 10:14:32;;;;;;;4.70;2.50;;;10.80;99.90;;;;;;4995037;28;20204;-78
2022/09/27 10:17:09;;;;;;;3.73;3.40;;;10.90;99.90;;;;;;5028479;28;20207;-78
2022/09/27 10:19:38;;;;;;;3.57;2.70;;;10.70;99.90;;;;;;5028168;28;20223;-78
2022/09/27 10:22:15;;;;;;;4.63;2.97;;;10.90;99.90;;;;;;4994662;28;20231;-78
2022/09/27 10:24:55;;;;;;;4.20;2.70;;;10.70;99.90;;;;;;5019274;28;20199;-78
2022/09/27 10:27:56;;;;;;;5.10;2.70;;;10.70;99.90;;;;;;5006510;28;20221;-79
2022/09/27 10:30:30;;;;;;;5.30;2.50;;;10.80;99.90;;;;;;5028532;28;20191;-78
2022/09/27 10:33:02;;;;;;;4.37;3.00;;;10.80;99.90;;;;;;5024636;28;20219;-79
2022/09/27 10:35:43;;;;;;;3.23;2.83;;;10.80;99.90;;;;;;5005602;28;20686;-78
2022/09/27 10:38:24;;;;;;;2.80;2.50;;;10.80;99.90;;;;;;5011836;28;20199;-78
2022/09/27 10:40:58;;;;;;;4.13;3.03;;;10.50;99.90;;;;;;5027540;28;20552;-78
2022/09/27 10:43:33;;;;;;;3.63;3.20;;;10.60;99.90;;;;;;4994268;28;20220;-78
2022/09/27 10:46:33;;;;;;;5.27;3.60;;;10.70;99.90;;;;;;4976930;28;20653;-78
2022/09/27 10:49:24;;;;;;;3.33;3.03;;;10.60;99.90;;;;;;4974972;28;20212;-78
2022/09/27 10:51:55;;;;;;;3.93;3.50;;;10.60;99.90;;;;;;4991696;28;20221;-79
2022/09/27 10:54:26;;;;;;;4.47;3.80;;;10.80;99.90;;;;;;5003198;28;20199;-77
2022/09/27 10:57:00;;;;;;;4.43;4.00;;;10.70;99.90;;;;;;5011740;28;20196;-78
2022/09/27 10:59:31;;;;;;;5.53;3.50;;;10.80;99.90;;;;;;4994418;28;20211;-78
2022/09/27 11:01:59;;;;;;;4.50;3.83;;;10.80;99.90;;;;;;4993229;28;20223;-79
2022/09/27 11:04:52;;;;;;;4.27;3.87;;;11.00;99.90;;;;;;4995161;28;20203;-78
2022/09/27 11:07:22;;;;;;;6.57;4.00;;;10.90;99.90;;;;;;5010709;28;20200;-78
2022/09/27 11:10:01;;;;;;;3.90;3.60;;;10.90;99.90;;;;;;5027535;28;20202;-78
2022/09/27 11:12:34;;;;;;;3.80;3.30;;;10.90;99.90;;;;;;5012121;28;20220;-78
2022/09/27 11:15:06;;;;;;;5.13;3.83;;;10.90;99.90;;;;;;4994088;28;20203;-78
2022/09/27 11:17:43;;;;;;;5.70;3.90;;;10.90;99.90;;;;;;4990092;28;20200;-78
2022/09/27 11:20:31;;;;;;;3.87;3.57;;;11.10;99.90;;;;;;4997048;28;20227;-78
2022/09/27 11:23:23;;;;;;;4.43;3.60;;;11.30;99.90;;;;;;5006060;28;20211;-78
2022/09/27 11:26:13;;;;;;;5.83;3.57;;;11.50;99.90;;;;;;4997864;28;20215;-78
2022/09/27 11:28:52;;;;;;;6.50;3.83;;;11.60;99.90;;;;;;4993084;28;20203;-78
2022/09/27 11:31:43;;;;;;;4.17;3.77;;;11.70;99.90;;;;;;4984867;28;20223;-78
2022/09/27 11:34:30;;;;;;;3.90;2.90;;;11.50;99.90;;;;;;5011290;28;20214;-78
2022/09/27 11:37:16;;;;;;;4.67;2.57;;;11.50;99.90;;;;;;5000494;28;20206;-78
2022/09/27 11:39:58;;;;;;;3.63;2.23;;;11.60;99.90;;;;;;5002976;28;20227;-78
2022/09/27 11:43:02;;;;;;;2.80;2.07;;;11.80;99.90;;;;;;5027548;28;20219;-78
2022/09/27 11:45:45;;;;;;;3.27;1.97;;;12.00;99.90;;;;;;4980177;28;20203;-78
2022/09/27 11:48:30;;;;;;;1.77;1.33;;;12.10;99.90;;;;;;5017010;28;20614;-78
2022/09/27 11:51:11;;;;;;;3.43;1.50;;;11.90;99.90;;;;;;5002262;28;20196;-78
2022/09/27 11:53:59;;;;;;;3.00;1.70;;;11.90;99.90;;;;;;4991169;28;20204;-78
2022/09/27 11:56:38;;;;;;;1.60;1.50;;;12.00;99.90;;;;;;4987562;28;20200;-78
2022/09/27 11:59:36;;;;;;;1.97;1.60;;;11.90;99.90;;;;;;4986531;28;20701;-78
2022/09/27 12:02:16;;;;;;;2.60;1.70;;;11.80;99.90;;;;;;4984669;28;20227;-78
2022/09/27 12:05:04;;;;;;;2.33;1.50;;;11.90;99.90;;;;;;4989451;28;20571;-78
2022/09/27 12:07:44;;;;;;;1.73;1.63;;;11.80;99.90;;;;;;5013286;28;20203;-79
2022/09/27 12:10:15;;;;;;;2.87;1.67;;;11.70;99.90;;;;;;4997436;28;20204;-78
2022/09/27 12:12:50;;;;;;;3.87;2.00;;;11.80;99.90;;;;;;5004968;28;20227;-79
2022/09/27 12:15:20;;;;;;;2.70;2.20;;;11.90;99.90;;;;;;4977529;28;20202;-79
2022/09/27 12:17:52;;;;;;;4.33;2.50;;;12.00;99.90;;;;;;4986426;28;20192;-85
2022/09/27 12:20:24;;;;;;;5.00;3.83;;;12.00;99.90;;;;;;4986563;28;20207;-80
2022/09/27 12:22:56;;;;;;;5.27;3.70;;;11.90;99.90;;;;;;4988776;28;20227;-80
2022/09/27 12:25:33;;;;;;;4.30;3.90;;;11.80;99.90;;;;;;4997052;28;20199;-79
2022/09/27 12:28:19;;;;;;;3.57;3.27;;;11.80;99.90;;;;;;4998754;28;20207;-79
2022/09/27 12:30:54;;;;;;;4.53;3.20;;;11.80;99.90;;;;;;4990490;28;20199;-79
2022/09/27 12:33:29;;;;;;;4.13;3.73;;;11.70;99.90;;;;;;4995986;28;20211;-79
2022/09/27 12:36:02;;;;;;;4.80;4.07;;;11.70;99.90;;;;;;4982383;28;20200;-79
2022/09/27 12:38:38;;;;;;;4.43;4.03;;;11.60;99.90;;;;;;4986648;28;20215;-79
2022/09/27 12:41:09;;;;;;;8.80;4.93;;;11.50;99.90;;;;;;4979391;28;20240;-80
2022/09/27 12:43:50;;;;;;;6.13;5.30;;;11.70;99.90;;;;;;4995922;28;20207;-78
2022/09/27 12:46:35;;;;;;;8.00;6.00;;;11.70;99.90;;;;;;4985508;28;20200;-78
2022/09/27 12:49:08;;;;;;;6.47;5.87;;;11.70;99.90;;;;;;5000558;28;20200;-78
2022/09/27 12:51:42;;;;;;;7.53;5.57;;;11.60;99.90;;;;;;5003693;28;20212;-78
2022/09/27 12:54:33;;;;;;;6.67;5.80;;;11.60;99.90;;;;;;5017681;28;20211;-80
2022/09/27 12:57:11;;;;;;;6.43;5.67;;;11.60;99.90;;;;;;5002935;28;20188;-79
2022/09/27 12:59:56;;;;;;;6.93;5.87;;;11.50;99.90;;;;;;4993195;28;20200;-78
2022/09/27 13:02:47;;;;;;;7.60;5.47;;;11.50;99.90;;;;;;4993165;28;20219;-79
2022/09/27 13:05:41;;;;;;;5.67;5.17;;;11.40;99.90;;;;;;5004534;28;20199;-78
2022/09/27 13:08:40;;;;;;;8.10;5.80;;;11.40;99.90;;;;;;4976568;28;20195;-78
2022/09/27 13:11:17;;;;;;;6.57;5.97;;;11.20;99.90;;;;;;4986091;28;20196;-79
2022/09/27 13:13:45;;;;;;;6.70;5.83;;;11.20;99.90;;;;;;4994915;28;20195;-79
2022/09/27 13:16:13;;;;;;;5.87;5.37;;;11.00;99.90;;;;;;4991966;28;20196;-79
2022/09/27 13:18:53;;;;;;;7.10;4.97;;;11.00;99.90;;;;;;4989316;28;20204;-78
2022/09/27 13:21:58;;;;;;;6.30;5.17;;;11.00;99.90;;;;;;5011518;28;20212;-78
2022/09/27 13:24:50;;;;;;;5.57;5.07;;;11.20;99.90;;;;;;4995458;28;20203;-78
2022/09/27 13:27:41;;;;;;;5.50;4.90;;;11.10;99.90;;;;;;5010751;28;20768;-78
2022/09/27 13:30:48;;;;;;;5.80;5.20;;;11.30;99.90;;;;;;5006295;28;20691;-78
2022/09/27 13:33:42;;;;;;;5.40;4.90;;;11.30;99.90;;;;;;4995336;28;20226;-78
2022/09/27 13:36:29;;;;;;;4.90;4.50;;;11.60;99.90;;;;;;4987665;28;20202;-78
2022/09/27 13:39:21;;;;;;;6.07;5.47;;;11.60;99.90;;;;;;5006449;28;20207;-78
2022/09/27 13:42:33;;;;;;;4.30;3.90;;;11.90;99.90;;;;;;5005064;28;20231;-79